Time;durP1;ratioP1;P1;durP2;ratioP2;P2;SDS_P1;SDS_P2;PMS_P1;PMS_P2;Temp;Humidity;BMP_temperature;BMP_pressure;BME280_temperature;BME280_humidity;BME280_pressure;Samples;Min_cycle;Max_cycle;Signal;HPM_P1;HPM_P2
2022/03/25 00:00:19;;;;;;;61.63;54.30;;;;;21.10;101736.00;;;;2073548;28;20206;-47
2022/03/25 00:01:20;;;;;;;61.22;53.40;;;;;21.00;101742.00;;;;2072146;28;20210;-47
2022/03/25 00:02:20;;;;;;;62.33;55.53;;;;;21.00;101736.00;;;;2072108;28;20260;-47
2022/03/25 00:03:21;;;;;;;63.40;53.67;;;;;21.00;101741.00;;;;2074530;28;20233;-47
2022/03/25 00:04:22;;;;;;;58.45;51.40;;;;;21.00;101737.00;;;;2080133;28;20795;-48
2022/03/25 00:05:22;;;;;;;60.53;52.17;;;;;21.00;101736.00;;;;2079647;28;20342;-47
2022/03/25 00:06:23;;;;;;;57.10;50.97;;;;;21.00;101726.00;;;;2079990;28;20209;-47
2022/03/25 00:07:23;;;;;;;57.40;50.67;;;;;21.00;101734.00;;;;2077097;28;20209;-48
2022/03/25 00:08:24;;;;;;;60.60;52.17;;;;;21.00;101733.00;;;;2071577;28;20449;-48
2022/03/25 00:09:24;;;;;;;60.77;51.97;;;;;21.00;101734.00;;;;2071975;28;20222;-48
2022/03/25 00:10:24;;;;;;;57.37;51.10;;;;;21.00;101739.00;;;;2072294;28;20214;-48
2022/03/25 00:11:25;;;;;;;57.40;50.10;;;;;21.00;101741.00;;;;2072120;28;20218;-48
2022/03/25 00:12:26;;;;;;;55.43;49.47;;;;;21.00;101737.00;;;;2071985;28;20218;-47
2022/03/25 00:13:26;;;;;;;57.28;50.25;;;;;21.00;101734.00;;;;2075269;28;20212;-47
2022/03/25 00:14:26;;;;;;;56.60;49.30;;;;;21.00;101732.00;;;;2079665;28;20248;-48
2022/03/25 00:15:27;;;;;;;54.37;48.47;;;;;21.00;101726.00;;;;2079367;28;20287;-47
2022/03/25 00:16:27;;;;;;;53.80;47.97;;;;;21.00;101735.00;;;;2080271;28;20231;-48
2022/03/25 00:17:27;;;;;;;54.20;48.33;;;;;21.00;101727.00;;;;2072813;28;20213;-47
2022/03/25 00:18:28;;;;;;;54.30;48.40;;;;;21.00;101732.00;;;;2071940;28;20292;-48
2022/03/25 00:19:28;;;;;;;52.83;46.80;;;;;21.00;101730.00;;;;2077262;28;20525;-47
2022/03/25 00:20:28;;;;;;;53.10;47.50;;;;;21.00;101727.00;;;;2080216;28;20217;-48
2022/03/25 00:21:29;;;;;;;51.93;46.13;;;;;21.00;101734.00;;;;2079317;28;20229;-47
2022/03/25 00:22:29;;;;;;;52.77;46.80;;;;;21.00;101731.00;;;;2079418;28;20283;-47
2022/03/25 00:23:30;;;;;;;53.53;47.70;;;;;21.00;101736.00;;;;2079972;28;20743;-47
2022/03/25 00:24:30;;;;;;;53.17;47.47;;;;;21.00;101735.00;;;;2080487;28;20206;-48
2022/03/25 00:25:30;;;;;;;51.33;45.50;;;;;21.00;101735.00;;;;2079328;28;20271;-48
2022/03/25 00:26:31;;;;;;;51.40;45.87;;;;;21.00;101736.00;;;;2080479;28;20209;-48
2022/03/25 00:27:34;;;;;;;51.30;45.90;;;;;21.00;101738.00;;;;2080347;28;20213;-48
2022/03/25 00:28:36;;;;;;;52.53;47.13;;;;;20.90;101741.00;;;;2080783;28;20221;-48
2022/03/25 00:29:37;;;;;;;51.55;44.95;;;;;20.90;101749.00;;;;2080743;28;20316;-48
2022/03/25 00:30:37;;;;;;;55.57;46.03;;;;;20.90;101744.00;;;;2072830;28;20585;-48
2022/03/25 00:31:37;;;;;;;47.63;42.07;;;;;21.00;101748.00;;;;2072724;28;20245;-48
2022/03/25 00:32:38;;;;;;;49.73;44.27;;;;;20.90;101743.00;;;;2072308;28;20214;-47
2022/03/25 00:33:39;;;;;;;47.63;42.47;;;;;20.90;101744.00;;;;2073040;28;20766;-48
2022/03/25 00:34:39;;;;;;;48.20;42.85;;;;;20.90;101739.00;;;;2072836;28;20214;-48
2022/03/25 00:35:40;;;;;;;48.53;43.43;;;;;21.00;101740.00;;;;2071541;28;20613;-51
2022/03/25 00:36:40;;;;;;;46.90;41.83;;;;;21.00;101743.00;;;;2072671;28;20222;-50
2022/03/25 00:37:41;;;;;;;51.17;44.63;;;;;21.00;101733.00;;;;2072444;28;20580;-50
2022/03/25 00:38:41;;;;;;;46.97;41.63;;;;;20.90;101737.00;;;;2072311;28;20210;-50
2022/03/25 00:39:42;;;;;;;48.47;42.90;;;;;20.90;101742.00;;;;2072010;28;20210;-50
2022/03/25 00:40:43;;;;;;;45.70;40.77;;;;;20.90;101734.00;;;;2071634;28;20214;-50
2022/03/25 00:41:44;;;;;;;46.13;41.38;;;;;20.90;101734.00;;;;2072187;28;20214;-48
2022/03/25 00:42:47;;;;;;;46.53;41.60;;;;;20.90;101738.00;;;;2072438;28;20301;-48
2022/03/25 00:43:47;;;;;;;48.35;43.03;;;;;20.90;101741.00;;;;2072846;28;20217;-48
2022/03/25 00:44:48;;;;;;;47.30;41.37;;;;;20.90;101742.00;;;;2072924;28;20616;-48
2022/03/25 00:45:48;;;;;;;47.03;41.27;;;;;20.90;101736.00;;;;2070949;28;20254;-48
2022/03/25 00:46:48;;;;;;;46.17;41.37;;;;;20.90;101736.00;;;;2072375;28;20263;-48
2022/03/25 00:47:49;;;;;;;45.70;41.00;;;;;20.90;101742.00;;;;2072513;28;20244;-48
2022/03/25 00:48:49;;;;;;;45.20;39.57;;;;;20.90;101741.00;;;;2072534;28;20742;-47
2022/03/25 00:49:50;;;;;;;43.57;39.00;;;;;20.90;101732.00;;;;2072281;28;20678;-48
2022/03/25 00:50:50;;;;;;;47.05;41.55;;;;;20.90;101737.00;;;;2072841;28;20229;-48
2022/03/25 00:51:51;;;;;;;43.97;39.37;;;;;20.90;101733.00;;;;2072771;28;20218;-48
2022/03/25 00:52:51;;;;;;;44.87;40.20;;;;;20.90;101737.00;;;;2072917;28;20372;-48
2022/03/25 00:53:51;;;;;;;44.23;39.50;;;;;20.90;101725.00;;;;2072984;28;20547;-48
2022/03/25 00:54:53;;;;;;;43.33;38.83;;;;;20.90;101733.00;;;;2071304;28;20277;-48
2022/03/25 00:55:53;;;;;;;46.38;40.10;;;;;20.90;101733.00;;;;2072031;28;20230;-48
2022/03/25 00:56:54;;;;;;;43.30;38.63;;;;;20.90;101729.00;;;;2072990;28;20217;-47
2022/03/25 00:57:55;;;;;;;42.92;38.35;;;;;20.80;101730.00;;;;2073148;28;20238;-48
2022/03/25 00:58:55;;;;;;;41.63;37.30;;;;;20.90;101660.00;;;;2072936;28;20861;-48
2022/03/25 00:59:55;;;;;;;43.50;38.80;;;;;20.90;101722.00;;;;2072823;28;20621;-48
2022/03/25 01:00:56;;;;;;;41.50;37.27;;;;;20.80;101721.00;;;;2067944;28;20225;-48
2022/03/25 01:01:57;;;;;;;40.77;36.50;;;;;20.80;101723.00;;;;2072526;28;20298;-48
2022/03/25 01:02:57;;;;;;;41.00;36.87;;;;;20.90;101721.00;;;;2072650;28;20693;-47
2022/03/25 01:03:57;;;;;;;39.53;35.53;;;;;20.80;101718.00;;;;2072298;28;20486;-48
2022/03/25 01:04:58;;;;;;;41.80;37.20;;;;;20.90;101727.00;;;;2072928;28;20232;-48
2022/03/25 01:05:58;;;;;;;43.43;38.33;;;;;20.90;101723.00;;;;2071256;28;20218;-48
2022/03/25 01:06:59;;;;;;;41.60;37.10;;;;;20.80;101727.00;;;;2075665;28;20241;-48
2022/03/25 01:08:00;;;;;;;41.22;35.40;;;;;20.90;101728.00;;;;2079014;28;20217;-47
2022/03/25 01:09:05;;;;;;;39.37;35.33;;;;;20.80;101727.00;;;;2078750;28;20917;-47
2022/03/25 01:10:06;;;;;;;40.53;36.25;;;;;20.80;101724.00;;;;2072588;28;20965;-48
2022/03/25 01:11:06;;;;;;;40.60;35.90;;;;;20.80;101727.00;;;;2070813;28;20218;-47
2022/03/25 01:12:08;;;;;;;39.10;35.20;;;;;20.80;101729.00;;;;2073504;28;20272;-47
2022/03/25 01:13:10;;;;;;;41.88;37.10;;;;;20.80;101727.00;;;;2080036;28;20283;-47
2022/03/25 01:14:10;;;;;;;39.97;35.85;;;;;20.80;101730.00;;;;2080570;28;20214;-48
2022/03/25 01:15:10;;;;;;;39.83;35.60;;;;;20.80;101732.00;;;;2080722;28;20224;-47
2022/03/25 01:16:11;;;;;;;38.87;34.83;;;;;20.80;101728.00;;;;2079877;28;20267;-48
2022/03/25 01:17:11;;;;;;;38.53;34.40;;;;;20.80;101727.00;;;;2080618;28;20213;-48
2022/03/25 01:18:11;;;;;;;37.10;33.30;;;;;20.80;101731.00;;;;2080655;28;20431;-48
2022/03/25 01:19:12;;;;;;;39.37;35.10;;;;;20.80;101735.00;;;;2080604;28;20213;-48
2022/03/25 01:20:12;;;;;;;39.57;35.40;;;;;20.80;101729.00;;;;2080729;28;20285;-48
2022/03/25 01:21:12;;;;;;;40.60;36.60;;;;;20.80;101733.00;;;;2080343;28;20213;-48
2022/03/25 01:22:14;;;;;;;37.47;33.67;;;;;20.80;101740.00;;;;2080657;28;20221;-48
2022/03/25 01:23:15;;;;;;;36.30;32.50;;;;;20.80;101726.00;;;;2080688;28;20263;-48
2022/03/25 01:24:15;;;;;;;38.67;34.80;;;;;20.80;101733.00;;;;2080294;28;20673;-47
2022/03/25 01:25:16;;;;;;;35.57;32.00;;;;;20.80;101734.00;;;;2079685;28;20803;-48
2022/03/25 01:26:17;;;;;;;36.72;32.88;;;;;20.80;101734.00;;;;2070859;28;20734;-50
2022/03/25 01:27:17;;;;;;;39.37;35.20;;;;;20.80;101738.00;;;;2071757;28;20210;-52
2022/03/25 01:28:18;;;;;;;37.27;33.37;;;;;20.80;101742.00;;;;2080144;28;20213;-50
2022/03/25 01:29:19;;;;;;;37.20;33.45;;;;;20.80;101737.00;;;;2080556;28;20209;-48
2022/03/25 01:30:19;;;;;;;37.40;33.37;;;;;20.80;101738.00;;;;2080709;28;20713;-48
2022/03/25 01:31:20;;;;;;;37.53;33.67;;;;;20.80;101734.00;;;;2080503;28;20205;-47
2022/03/25 01:32:20;;;;;;;35.03;31.47;;;;;20.80;101735.00;;;;2080523;28;20232;-48
2022/03/25 01:33:20;;;;;;;37.87;34.07;;;;;20.70;101735.00;;;;2080521;28;20236;-48
2022/03/25 01:34:21;;;;;;;36.03;32.33;;;;;20.80;101733.00;;;;2079304;28;20209;-48
2022/03/25 01:35:24;;;;;;;36.53;32.80;;;;;20.80;101730.00;;;;2078613;28;20205;-48
2022/03/25 01:36:24;;;;;;;36.85;33.13;;;;;20.70;101731.00;;;;2079082;28;20276;-48
2022/03/25 01:37:25;;;;;;;35.23;31.63;;;;;20.70;101733.00;;;;2079451;28;20776;-48
2022/03/25 01:38:28;;;;;;;34.93;31.33;;;;;20.80;101729.00;;;;2078887;28;20213;-48
2022/03/25 01:39:28;;;;;;;34.10;30.67;;;;;20.70;101725.00;;;;2078303;28;20209;-48
2022/03/25 01:40:28;;;;;;;33.33;29.90;;;;;20.70;101727.00;;;;2070050;28;20752;-47
2022/03/25 01:41:29;;;;;;;36.63;32.90;;;;;20.80;101728.00;;;;2070300;28;20225;-48
2022/03/25 01:42:32;;;;;;;32.97;29.73;;;;;20.70;101722.00;;;;2070908;28;20596;-48
2022/03/25 01:43:32;;;;;;;33.53;30.13;;;;;20.70;101723.00;;;;2071485;28;20744;-48
2022/03/25 01:44:33;;;;;;;33.63;30.17;;;;;20.70;101725.00;;;;2078713;28;20217;-48
2022/03/25 01:45:35;;;;;;;33.47;29.90;;;;;20.70;101719.00;;;;2077830;28;20271;-48
2022/03/25 01:46:36;;;;;;;33.55;30.25;;;;;20.70;101719.00;;;;2078417;28;20893;-48
2022/03/25 01:47:38;;;;;;;33.55;30.02;;;;;20.70;101716.00;;;;2076963;28;20267;-48
2022/03/25 01:48:38;;;;;;;35.30;31.70;;;;;20.70;101723.00;;;;2077225;28;20214;-48
2022/03/25 01:49:38;;;;;;;34.30;30.90;;;;;20.70;101722.00;;;;2071245;28;20229;-48
2022/03/25 01:50:40;;;;;;;34.67;31.13;;;;;20.70;101724.00;;;;2074632;28;20218;-48
2022/03/25 01:51:41;;;;;;;33.17;29.95;;;;;20.70;101728.00;;;;2079290;28;20241;-48
2022/03/25 01:52:41;;;;;;;34.00;30.60;;;;;20.70;101725.00;;;;2079101;28;20217;-48
2022/03/25 01:53:41;;;;;;;32.90;29.60;;;;;20.70;101729.00;;;;2073001;28;20218;-48
2022/03/25 01:54:41;;;;;;;33.13;29.67;;;;;20.70;101718.00;;;;2071095;28;20297;-48
2022/03/25 01:55:59;;;;;;;32.87;29.70;;;;;20.70;101721.00;;;;2078391;28;20282;-48
2022/03/25 01:57:08;;;;;;;33.53;30.23;;;;;20.70;101727.00;;;;2078579;28;20221;-48
2022/03/25 01:58:09;;;;;;;32.55;29.23;;;;;20.70;101725.00;;;;2079423;28;20210;-48
2022/03/25 01:59:10;;;;;;;32.43;29.43;;;;;20.70;101725.00;;;;2070382;28;20268;-48
2022/03/25 02:00:13;;;;;;;31.60;28.40;;;;;20.70;101726.00;;;;2070444;28;20317;-48
2022/03/25 02:01:14;;;;;;;31.60;28.50;;;;;20.70;101734.00;;;;2078459;28;20205;-48
2022/03/25 02:02:14;;;;;;;33.27;30.00;;;;;20.70;101728.00;;;;2078894;28;20209;-48
2022/03/25 02:03:16;;;;;;;31.83;28.57;;;;;20.70;101731.00;;;;2079233;28;20213;-48
2022/03/25 02:04:17;;;;;;;32.13;28.92;;;;;20.70;101727.00;;;;2079018;28;20213;-48
2022/03/25 02:05:18;;;;;;;31.23;28.23;;;;;20.70;101730.00;;;;2078747;28;20221;-48
2022/03/25 02:06:18;;;;;;;30.43;27.43;;;;;20.70;101730.00;;;;2076132;28;20219;-48
2022/03/25 02:07:21;;;;;;;32.83;29.70;;;;;20.70;101731.00;;;;2071819;28;20457;-48
2022/03/25 02:08:21;;;;;;;31.33;28.30;;;;;20.70;101722.00;;;;2073201;28;20221;-49
2022/03/25 02:09:21;;;;;;;31.50;28.50;;;;;20.70;101722.00;;;;2080529;28;20232;-48
2022/03/25 02:10:22;;;;;;;29.23;26.30;;;;;20.70;101727.00;;;;2080406;28;20745;-48
2022/03/25 02:11:22;;;;;;;31.70;28.47;;;;;20.70;101726.00;;;;2072968;28;20737;-48
2022/03/25 02:12:22;;;;;;;30.43;27.50;;;;;20.60;101725.00;;;;2072170;28;20214;-48
2022/03/25 02:13:23;;;;;;;31.20;28.20;;;;;20.60;101728.00;;;;2070833;28;20210;-48
2022/03/25 02:14:23;;;;;;;31.87;28.60;;;;;20.60;101739.00;;;;2071007;28;20237;-48
2022/03/25 02:15:31;;;;;;;31.17;28.00;;;;;20.60;101730.00;;;;2070709;28;20238;-47
2022/03/25 02:16:42;;;;;;;29.65;26.65;;;;;20.60;101729.00;;;;2076869;28;20256;-48
2022/03/25 02:17:43;;;;;;;29.98;26.98;;;;;20.60;101725.00;;;;2079074;28;20206;-48
2022/03/25 02:18:43;;;;;;;30.47;27.37;;;;;20.60;101725.00;;;;2079105;28;20695;-48
2022/03/25 02:19:43;;;;;;;29.90;26.87;;;;;20.60;101733.00;;;;2079594;28;20751;-48
2022/03/25 02:20:44;;;;;;;31.20;28.10;;;;;20.60;101724.00;;;;2079967;28;20206;-47
2022/03/25 02:21:48;;;;;;;29.77;26.67;;;;;20.60;101728.00;;;;2079463;28;20225;-48
2022/03/25 02:22:48;;;;;;;28.75;25.95;;;;;20.60;101721.00;;;;2078298;28;20213;-48
2022/03/25 02:23:48;;;;;;;27.67;25.00;;;;;20.60;101729.00;;;;2078914;28;20213;-48
2022/03/25 02:24:49;;;;;;;30.50;27.60;;;;;20.60;101723.00;;;;2079843;28;20229;-48
2022/03/25 02:25:50;;;;;;;30.30;27.10;;;;;20.60;101729.00;;;;2078992;28;20240;-48
2022/03/25 02:26:51;;;;;;;30.38;27.42;;;;;20.60;101732.00;;;;2079776;28;20213;-47
2022/03/25 02:27:52;;;;;;;28.35;25.65;;;;;20.60;101735.00;;;;2079249;28;20228;-48
2022/03/25 02:28:52;;;;;;;28.33;25.73;;;;;20.60;101723.00;;;;2077489;28;20226;-48
2022/03/25 02:29:53;;;;;;;29.30;26.40;;;;;20.60;101722.00;;;;2079867;28;20217;-47
2022/03/25 02:30:53;;;;;;;29.53;26.63;;;;;20.60;101728.00;;;;2079914;28;20225;-48
2022/03/25 02:31:54;;;;;;;30.37;27.30;;;;;20.60;101728.00;;;;2079655;28;20275;-48
2022/03/25 02:32:57;;;;;;;29.40;26.53;;;;;20.60;101741.00;;;;2079771;28;20217;-48
2022/03/25 02:34:00;;;;;;;28.15;25.50;;;;;20.60;101736.00;;;;2079353;28;20221;-49
2022/03/25 02:35:01;;;;;;;31.15;28.05;;;;;20.60;101727.00;;;;2079006;28;20235;-48
2022/03/25 02:36:01;;;;;;;28.70;25.90;;;;;20.60;101725.00;;;;2078412;28;20214;-48
2022/03/25 02:37:01;;;;;;;28.40;25.67;;;;;20.60;101729.00;;;;2079332;28;20222;-48
2022/03/25 02:38:02;;;;;;;27.70;24.90;;;;;20.60;101651.00;;;;2072572;28;20228;-48
2022/03/25 02:39:04;;;;;;;29.20;26.30;;;;;20.60;101722.00;;;;2080063;28;20221;-50
2022/03/25 02:40:04;;;;;;;28.15;25.50;;;;;20.60;101720.00;;;;2079919;28;20248;-49
2022/03/25 02:41:05;;;;;;;27.73;25.03;;;;;20.60;101727.00;;;;2079542;28;20224;-48
2022/03/25 02:42:05;;;;;;;27.30;24.70;;;;;20.60;101725.00;;;;2079515;28;20214;-48
2022/03/25 02:43:06;;;;;;;28.97;25.97;;;;;20.60;101728.00;;;;2078913;28;20267;-48
2022/03/25 02:44:06;;;;;;;28.87;25.97;;;;;20.60;101722.00;;;;2078910;28;20209;-48
2022/03/25 02:45:08;;;;;;;28.10;25.50;;;;;20.60;101728.00;;;;2078683;28;20915;-48
2022/03/25 02:46:08;;;;;;;27.40;24.70;;;;;20.60;101718.00;;;;2069866;28;20245;-48
2022/03/25 02:47:08;;;;;;;27.70;24.87;;;;;20.60;101728.00;;;;2070703;28;20598;-48
2022/03/25 02:48:09;;;;;;;27.77;25.17;;;;;20.60;101723.00;;;;2072283;28;20214;-48
2022/03/25 02:49:09;;;;;;;28.00;25.20;;;;;20.60;101731.00;;;;2073591;28;20214;-48
2022/03/25 02:50:10;;;;;;;27.97;25.27;;;;;20.50;101722.00;;;;2072062;28;20233;-49
2022/03/25 02:51:10;;;;;;;27.50;24.80;;;;;20.30;101731.00;;;;2070729;28;20206;-47
2022/03/25 02:52:10;;;;;;;27.27;24.57;;;;;20.30;101725.00;;;;2070818;28;20218;-47
2022/03/25 02:53:11;;;;;;;27.20;24.13;;;;;20.40;101729.00;;;;2070761;28;20309;-48
2022/03/25 02:54:11;;;;;;;25.50;23.10;;;;;20.30;101733.00;;;;2070571;28;20882;-47
2022/03/25 02:55:12;;;;;;;27.27;24.30;;;;;20.30;101734.00;;;;2070752;28;20224;-48
2022/03/25 02:56:12;;;;;;;28.05;25.35;;;;;20.30;101727.00;;;;2070134;28;20210;-48
2022/03/25 02:57:13;;;;;;;26.57;23.97;;;;;20.30;101734.00;;;;2070493;28;20245;-47
2022/03/25 02:58:13;;;;;;;26.17;23.77;;;;;20.40;101728.00;;;;2070697;28;20206;-47
2022/03/25 02:59:13;;;;;;;27.10;24.43;;;;;20.40;101725.00;;;;2070740;28;20206;-48
2022/03/25 03:00:14;;;;;;;26.50;24.00;;;;;20.50;101727.00;;;;2070004;28;20240;-47
2022/03/25 03:01:14;;;;;;;27.73;24.97;;;;;20.50;101723.00;;;;2070084;28;20230;-48
2022/03/25 03:02:15;;;;;;;27.90;25.30;;;;;20.50;101728.00;;;;2069847;28;20260;-48
2022/03/25 03:03:16;;;;;;;26.45;23.75;;;;;20.50;101730.00;;;;2069259;28;20249;-48
2022/03/25 03:04:17;;;;;;;27.20;24.60;;;;;20.50;101726.00;;;;2070721;28;20218;-47
2022/03/25 03:05:17;;;;;;;27.63;24.83;;;;;20.50;101727.00;;;;2070336;28;20214;-48
2022/03/25 03:06:18;;;;;;;26.77;24.00;;;;;20.50;101733.00;;;;2070121;28;20222;-48
2022/03/25 03:07:18;;;;;;;26.70;24.10;;;;;20.50;101738.00;;;;2070718;28;20476;-48
2022/03/25 03:08:18;;;;;;;27.90;25.10;;;;;20.50;101730.00;;;;2070650;28;20210;-48
2022/03/25 03:09:19;;;;;;;27.57;24.90;;;;;20.50;101730.00;;;;2070718;28;20222;-48
2022/03/25 03:10:19;;;;;;;27.23;24.43;;;;;20.50;101738.00;;;;2070729;28;20206;-47
2022/03/25 03:11:20;;;;;;;28.67;25.87;;;;;20.50;101735.00;;;;2070605;28;20706;-48
2022/03/25 03:12:20;;;;;;;26.53;24.03;;;;;20.50;101741.00;;;;2070722;28;20244;-48
2022/03/25 03:13:20;;;;;;;26.10;23.67;;;;;20.50;101737.00;;;;2070084;28;20690;-47
2022/03/25 03:14:21;;;;;;;27.30;24.77;;;;;20.50;101742.00;;;;2070432;28;20221;-47
2022/03/25 03:15:21;;;;;;;27.93;25.10;;;;;20.50;101747.00;;;;2069919;28;20228;-47
2022/03/25 03:16:22;;;;;;;27.00;24.20;;;;;20.50;101748.00;;;;2070210;28;20301;-48
2022/03/25 03:17:23;;;;;;;26.50;23.90;;;;;20.50;101745.00;;;;2069135;28;20221;-48
2022/03/25 03:18:23;;;;;;;26.17;23.77;;;;;20.50;101739.00;;;;2069248;28;20453;-47
2022/03/25 03:19:23;;;;;;;28.27;25.57;;;;;20.50;101742.00;;;;2070119;28;20209;-48
2022/03/25 03:20:24;;;;;;;27.13;24.63;;;;;20.50;101747.00;;;;2069726;28;20682;-48
2022/03/25 03:21:25;;;;;;;26.53;24.03;;;;;20.50;101739.00;;;;2070295;28;20694;-48
2022/03/25 03:22:25;;;;;;;25.07;22.73;;;;;20.50;101742.00;;;;2070304;28;21261;-48
2022/03/25 03:23:25;;;;;;;29.30;26.30;;;;;20.50;101745.00;;;;2069158;28;20224;-47
2022/03/25 03:24:26;;;;;;;25.43;23.03;;;;;20.50;101741.00;;;;2069344;28;20222;-47
2022/03/25 03:25:26;;;;;;;25.73;23.27;;;;;20.50;101749.00;;;;2069448;28;20217;-47
2022/03/25 03:26:27;;;;;;;27.73;25.03;;;;;20.50;101747.00;;;;2070418;28;20214;-47
2022/03/25 03:27:27;;;;;;;26.97;24.13;;;;;20.50;101741.00;;;;2070525;28;20238;-47
2022/03/25 03:28:27;;;;;;;24.97;22.57;;;;;20.50;101745.00;;;;2070375;28;20225;-48
2022/03/25 03:29:28;;;;;;;26.13;23.63;;;;;20.50;101743.00;;;;2070574;28;20224;-47
2022/03/25 03:30:29;;;;;;;25.70;23.10;;;;;20.50;101735.00;;;;2070665;28;20222;-47
2022/03/25 03:31:29;;;;;;;26.40;23.90;;;;;20.50;101744.00;;;;2070385;28;20516;-47
2022/03/25 03:32:29;;;;;;;25.03;22.53;;;;;20.40;101749.00;;;;2070568;28;20222;-47
2022/03/25 03:33:30;;;;;;;28.00;25.00;;;;;20.40;101749.00;;;;2070367;28;20299;-47
2022/03/25 03:34:31;;;;;;;26.43;23.83;;;;;20.50;101747.00;;;;2062813;28;20218;-48
2022/03/25 03:35:32;;;;;;;24.23;22.00;;;;;20.40;101743.00;;;;2069780;28;20222;-48
2022/03/25 03:36:32;;;;;;;26.60;24.10;;;;;20.40;101746.00;;;;2070376;28;20578;-47
2022/03/25 03:37:39;;;;;;;25.17;22.70;;;;;20.40;101740.00;;;;2070528;28;20210;-47
2022/03/25 03:38:40;;;;;;;25.45;23.02;;;;;20.40;101743.00;;;;2070260;28;20301;-48
2022/03/25 03:39:40;;;;;;;25.03;22.73;;;;;20.40;101745.00;;;;2070284;28;20958;-47
2022/03/25 03:40:40;;;;;;;25.90;23.33;;;;;20.40;101748.00;;;;2070523;28;20210;-48
2022/03/25 03:41:41;;;;;;;25.87;23.27;;;;;20.40;101745.00;;;;2070290;28;20328;-48
2022/03/25 03:42:41;;;;;;;24.57;22.33;;;;;20.40;101742.00;;;;2070595;28;20214;-48
2022/03/25 03:43:41;;;;;;;25.47;23.17;;;;;20.40;101747.00;;;;2074204;28;20206;-47
2022/03/25 03:44:42;;;;;;;26.77;24.07;;;;;20.40;101743.00;;;;2077998;28;20724;-48
2022/03/25 03:45:42;;;;;;;24.93;22.73;;;;;20.40;101744.00;;;;2077211;28;20728;-48
2022/03/25 03:46:42;;;;;;;25.13;22.83;;;;;20.40;101738.00;;;;2078561;28;20205;-47
2022/03/25 03:47:43;;;;;;;23.37;21.17;;;;;20.40;101744.00;;;;2078377;28;20209;-49
2022/03/25 03:48:43;;;;;;;23.53;21.27;;;;;20.40;101744.00;;;;2078258;28;20217;-48
2022/03/25 03:49:44;;;;;;;23.87;21.70;;;;;20.40;101742.00;;;;2078618;28;20238;-47
2022/03/25 03:50:44;;;;;;;25.37;22.87;;;;;20.40;101752.00;;;;2078771;28;20209;-48
2022/03/25 03:51:44;;;;;;;25.50;23.10;;;;;20.40;101742.00;;;;2078420;28;20210;-48
2022/03/25 03:52:45;;;;;;;25.77;23.33;;;;;20.40;101739.00;;;;2078510;28;20776;-48
2022/03/25 03:53:45;;;;;;;26.40;24.03;;;;;20.40;101743.00;;;;2078532;28;20719;-47
2022/03/25 03:54:45;;;;;;;24.73;22.50;;;;;20.40;101738.00;;;;2077895;28;20229;-47
2022/03/25 03:55:46;;;;;;;25.77;23.17;;;;;20.40;101737.00;;;;2077860;28;20205;-48
2022/03/25 03:56:46;;;;;;;25.63;23.33;;;;;20.40;101738.00;;;;2078522;28;20216;-48
2022/03/25 03:57:46;;;;;;;24.50;22.30;;;;;20.40;101736.00;;;;2078370;28;20202;-47
2022/03/25 03:58:47;;;;;;;24.10;21.77;;;;;20.40;101745.00;;;;2078889;28;20205;-47
2022/03/25 03:59:47;;;;;;;23.97;21.67;;;;;20.40;101743.00;;;;2076118;28;20202;-48
2022/03/25 04:00:48;;;;;;;24.10;21.90;;;;;20.40;101745.00;;;;2078550;28;20205;-47
2022/03/25 04:01:49;;;;;;;26.30;23.80;;;;;20.40;101745.00;;;;2077805;28;20210;-47
2022/03/25 04:02:49;;;;;;;24.00;21.60;;;;;20.40;101745.00;;;;2077760;28;20217;-47
2022/03/25 04:03:49;;;;;;;23.67;21.40;;;;;20.40;101751.00;;;;2078587;28;20209;-48
2022/03/25 04:04:50;;;;;;;25.53;23.23;;;;;20.40;101745.00;;;;2078523;28;20213;-48
2022/03/25 04:05:50;;;;;;;23.90;21.80;;;;;20.40;101743.00;;;;2077143;28;20229;-47
2022/03/25 04:06:51;;;;;;;25.43;23.13;;;;;20.40;101736.00;;;;2077838;28;20226;-47
2022/03/25 04:07:51;;;;;;;23.77;21.50;;;;;20.40;101739.00;;;;2078348;28;20319;-48
2022/03/25 04:08:51;;;;;;;23.00;20.80;;;;;20.30;101742.00;;;;2078572;28;20300;-47
2022/03/25 04:09:52;;;;;;;23.83;21.53;;;;;20.30;101751.00;;;;2078308;28;20237;-47
2022/03/25 04:10:52;;;;;;;24.57;22.17;;;;;20.40;101742.00;;;;2078104;28;21107;-47
2022/03/25 04:11:53;;;;;;;23.77;21.60;;;;;20.30;101749.00;;;;2078542;28;20217;-47
2022/03/25 04:12:53;;;;;;;25.37;22.97;;;;;20.40;101744.00;;;;2078476;28;20222;-47
2022/03/25 04:13:53;;;;;;;22.73;20.63;;;;;20.30;101740.00;;;;2078457;28;20221;-48
2022/03/25 04:14:54;;;;;;;23.00;20.97;;;;;20.30;101741.00;;;;2078385;28;20258;-47
2022/03/25 04:15:54;;;;;;;24.47;22.27;;;;;20.30;101747.00;;;;2077654;28;20210;-48
2022/03/25 04:16:54;;;;;;;22.97;20.67;;;;;20.40;101744.00;;;;2078459;28;20217;-47
2022/03/25 04:17:55;;;;;;;23.50;21.30;;;;;20.30;101742.00;;;;2078486;28;20744;-47
2022/03/25 04:18:58;;;;;;;23.90;21.70;;;;;20.30;101744.00;;;;2078581;28;20224;-47
2022/03/25 04:19:58;;;;;;;22.90;20.70;;;;;20.30;101749.00;;;;2078398;28;20697;-48
2022/03/25 04:20:59;;;;;;;24.73;22.53;;;;;20.30;101744.00;;;;2078504;28;20214;-47
2022/03/25 04:21:59;;;;;;;22.27;20.17;;;;;20.30;101748.00;;;;2078676;28;20213;-47
2022/03/25 04:23:00;;;;;;;23.23;21.17;;;;;20.30;101737.00;;;;2078672;28;20455;-47
2022/03/25 04:24:00;;;;;;;24.13;21.93;;;;;20.30;101739.00;;;;2078559;28;20245;-47
2022/03/25 04:25:00;;;;;;;24.47;22.10;;;;;20.30;101757.00;;;;2078446;28;20597;-48
2022/03/25 04:26:02;;;;;;;23.30;21.10;;;;;20.30;101746.00;;;;2077650;28;20725;-48
2022/03/25 04:27:02;;;;;;;23.58;21.38;;;;;20.30;101753.00;;;;2078332;28;20265;-47
2022/03/25 04:28:03;;;;;;;23.30;21.07;;;;;20.30;101751.00;;;;2078510;28;20218;-47
2022/03/25 04:29:03;;;;;;;24.30;22.00;;;;;20.30;101753.00;;;;2078666;28;20304;-47
2022/03/25 04:30:04;;;;;;;22.80;20.70;;;;;20.30;101759.00;;;;2078134;28;20223;-48
2022/03/25 04:31:04;;;;;;;22.17;20.07;;;;;20.30;101748.00;;;;2078488;28;20233;-47
2022/03/25 04:32:06;;;;;;;24.80;22.43;;;;;20.10;101751.00;;;;2077776;28;20708;-47
2022/03/25 04:33:07;;;;;;;23.27;21.13;;;;;20.30;101754.00;;;;2077681;28;20223;-48
2022/03/25 04:34:07;;;;;;;23.93;21.73;;;;;20.30;101756.00;;;;2078346;28;20221;-47
2022/03/25 04:35:08;;;;;;;22.57;20.57;;;;;20.30;101756.00;;;;2078445;28;20228;-47
2022/03/25 04:36:08;;;;;;;22.63;20.63;;;;;20.30;101748.00;;;;2076825;28;20217;-48
2022/03/25 04:37:09;;;;;;;22.90;20.80;;;;;20.30;101752.00;;;;2079076;28;20272;-47
2022/03/25 04:38:09;;;;;;;23.03;20.83;;;;;20.30;101749.00;;;;2068650;28;20248;-47
2022/03/25 04:39:10;;;;;;;23.90;21.77;;;;;20.30;101745.00;;;;2079538;28;20214;-48
2022/03/25 04:40:11;;;;;;;23.30;21.30;;;;;20.30;101754.00;;;;2072216;28;20214;-47
2022/03/25 04:41:11;;;;;;;24.20;21.80;;;;;20.30;101748.00;;;;2071447;28;20218;-48
2022/03/25 04:42:12;;;;;;;23.50;21.20;;;;;20.30;101763.00;;;;2071748;28;20461;-47
2022/03/25 04:43:13;;;;;;;23.95;21.65;;;;;20.30;101745.00;;;;2069585;28;20256;-47
2022/03/25 04:44:13;;;;;;;23.97;21.80;;;;;20.30;101753.00;;;;2079133;28;20217;-48
2022/03/25 04:45:14;;;;;;;23.50;21.40;;;;;20.20;101750.00;;;;2072025;28;20453;-47
2022/03/25 04:46:14;;;;;;;21.67;19.67;;;;;20.20;101754.00;;;;2070916;28;20706;-47
2022/03/25 04:47:15;;;;;;;23.67;21.57;;;;;20.30;101757.00;;;;2071335;28;20269;-53
2022/03/25 04:48:15;;;;;;;23.20;21.10;;;;;20.30;101754.00;;;;2071592;28;20690;-52
2022/03/25 04:49:15;;;;;;;23.40;21.30;;;;;20.30;101756.00;;;;2071710;28;20719;-49
2022/03/25 04:50:17;;;;;;;23.27;21.20;;;;;20.30;101751.00;;;;2071418;28;20233;-48
2022/03/25 04:51:18;;;;;;;23.37;21.17;;;;;20.30;101755.00;;;;2076249;28;20205;-48
2022/03/25 04:52:19;;;;;;;22.95;20.83;;;;;20.30;101742.00;;;;2079813;28;20812;-48
2022/03/25 04:53:19;;;;;;;21.43;19.43;;;;;20.30;101763.00;;;;2079758;28;20209;-48